Lifter — V2DD4 — position and weather

sailwx.info

Track history (hours):
 
Tides and Currents Weather Stations Pressure Air Temp Water Temp Dewpoint Dewpoint Depression Visibility Wind Speed Wind Dir Waves Ship Positions

Lifter

Last reported at 2016-Jun-24 01:30 UTC. Time now 2016-Jun-26 08:23 UTC.
Position N 36°28' E 035°48'.

Length 119 m; draft 6 m.

Type: Cargo ship. MMSI: 305175000.

Date/timePositionNaut miles runAvg speedWind from/ knotsBaromVisibWave heightAir tempDewpointWater temp
2016-Jun-24 01:30N 36°28' E 035°48'2311.1
2016-Jun-23 23:27N 36°30' E 035°20'1712.2
2016-Jun-23 22:04N 36°35' E 034°60'712.5
2016-Jun-23 21:31N 36°38' E 034°52'1212.1
2016-Jun-23 20:33N 36°45' E 034°41'3 0.7
2016-Jun-23 16:18N 36°48' E 034°39'0 0.0
2016-Jun-23 12:33N 36°48' E 034°39'0 0.0
2016-Jun-23 11:24N 36°48' E 034°39'0 0.0
2016-Jun-23 10:33N 36°48' E 034°39'0 0.0
2016-Jun-23 09:33N 36°48' E 034°39'0 0.0
2016-Jun-23 08:30N 36°48' E 034°39'0 0.0
2016-Jun-22 13:33N 36°48' E 034°39'0 0.0
2016-Jun-22 11:33N 36°48' E 034°39'0 0.0
2016-Jun-22 10:24N 36°48' E 034°39'1 0.4
2016-Jun-22 08:25N 36°47' E 034°39'17 9.0
2016-Jun-22 06:33N 36°34' E 034°27'9712.0
2016-Jun-21 22:30N 35°32' E 032°55'8412.1
2016-Jun-21 15:33N 34°32' E 031°44'1211.8
2016-Jun-21 14:33N 34°21' E 031°37'1211.9
2016-Jun-21 13:33N 34°11' E 031°31'1212.0
2016-Jun-21 12:33N 33°60' E 031°25'1212.3
2016-Jun-21 11:33N 33°49' E 031°19'1212.4
2016-Jun-21 10:33N 33°38' E 031°12'1212.4
2016-Jun-21 09:33N 33°27' E 031°05'1212.4
2016-Jun-21 08:33N 33°15' E 030°58'1412.7
2016-Jun-21 07:26N 33°03' E 030°51'1112.7
2016-Jun-21 06:33N 32°52' E 030°46'7612.5
2016-Jun-21 00:31N 31°45' E 030°05'1212.1
2016-Jun-20 23:31N 31°34' E 029°58'1212.4
2016-Jun-20 22:33N 31°23' E 029°54'  
2016-Jun-16 22:33N 35°13' E 018°25'1212.0
2016-Jun-16 21:33N 35°19' E 018°12'2511.8
2016-Jun-16 19:23N 35°31' E 017°44'1011.6
2016-Jun-16 18:34N 35°35' E 017°33'1211.5
2016-Jun-16 17:33N 35°39' E 017°20'11711.7
2016-Jun-16 07:32N 36°32' E 015°11'1111.4
2016-Jun-16 06:33N 36°35' E 014°58'1211.9
2016-Jun-16 05:33N 36°34' E 014°43'1211.9
2016-Jun-16 04:33N 36°39' E 014°29'1212.4
2016-Jun-16 03:34N 36°44' E 014°15'1312.9
2016-Jun-16 02:33N 36°49' E 014°01'1312.7
2016-Jun-16 01:34N 36°54' E 013°46'1212.0
2016-Jun-16 00:34N 36°59' E 013°32'1211.6
2016-Jun-15 23:34N 37°03' E 013°19'1211.8
2016-Jun-15 22:33N 37°08' E 013°05'1211.7
2016-Jun-15 21:33N 37°12' E 012°51'1212.0
2016-Jun-15 20:33N 37°15' E 012°37'1211.9
2016-Jun-15 19:33N 37°18' E 012°22'1212.1
2016-Jun-15 18:33N 37°19' E 012°07'1212.1
2016-Jun-15 17:33N 37°18' E 011°52'1212.0
2016-Jun-15 16:34N 37°18' E 011°37'1211.9
2016-Jun-15 15:33N 37°19' E 011°22'1411.6
2016-Jun-15 14:18N 37°25' E 011°05'912.0
2016-Jun-15 13:33N 37°26' E 010°54'1212.1
2016-Jun-15 12:34N 37°29' E 010°39'  
Track history (hours):
 
Tides and Currents Weather Stations Pressure Air Temp Water Temp Dewpoint Dewpoint Depression Visibility Wind Speed Wind Dir Waves Ship Positions

Lifter

Last reported at 2016-Jun-24 01:30 UTC. Time now 2016-Jun-26 08:23 UTC.
Position N 36°28' E 035°48'.

Length 119 m; draft 6 m.

Type: Cargo ship. MMSI: 305175000.

Date/timePositionNaut miles runAvg speedWind from/ knotsBaromVisibWave heightAir tempDewpointWater temp
2016-Jun-24 01:30N 36°28' E 035°48'2311.1
2016-Jun-23 23:27N 36°30' E 035°20'1712.2
2016-Jun-23 22:04N 36°35' E 034°60'712.5
2016-Jun-23 21:31N 36°38' E 034°52'1212.1
2016-Jun-23 20:33N 36°45' E 034°41'3 0.7
2016-Jun-23 16:18N 36°48' E 034°39'0 0.0
2016-Jun-23 12:33N 36°48' E 034°39'0 0.0
2016-Jun-23 11:24N 36°48' E 034°39'0 0.0
2016-Jun-23 10:33N 36°48' E 034°39'0 0.0
2016-Jun-23 09:33N 36°48' E 034°39'0 0.0
2016-Jun-23 08:30N 36°48' E 034°39'0 0.0
2016-Jun-22 13:33N 36°48' E 034°39'0 0.0
2016-Jun-22 11:33N 36°48' E 034°39'0 0.0
2016-Jun-22 10:24N 36°48' E 034°39'1 0.4
2016-Jun-22 08:25N 36°47' E 034°39'17 9.0
2016-Jun-22 06:33N 36°34' E 034°27'9712.0
2016-Jun-21 22:30N 35°32' E 032°55'8412.1
2016-Jun-21 15:33N 34°32' E 031°44'1211.8
2016-Jun-21 14:33N 34°21' E 031°37'1211.9
2016-Jun-21 13:33N 34°11' E 031°31'1212.0
2016-Jun-21 12:33N 33°60' E 031°25'1212.3
2016-Jun-21 11:33N 33°49' E 031°19'1212.4
2016-Jun-21 10:33N 33°38' E 031°12'1212.4
2016-Jun-21 09:33N 33°27' E 031°05'1212.4
2016-Jun-21 08:33N 33°15' E 030°58'1412.7
2016-Jun-21 07:26N 33°03' E 030°51'1112.7
2016-Jun-21 06:33N 32°52' E 030°46'7612.5
2016-Jun-21 00:31N 31°45' E 030°05'1212.1
2016-Jun-20 23:31N 31°34' E 029°58'1212.4
2016-Jun-20 22:33N 31°23' E 029°54'  
2016-Jun-16 22:33N 35°13' E 018°25'1212.0
2016-Jun-16 21:33N 35°19' E 018°12'2511.8
2016-Jun-16 19:23N 35°31' E 017°44'1011.6
2016-Jun-16 18:34N 35°35' E 017°33'1211.5
2016-Jun-16 17:33N 35°39' E 017°20'11711.7
2016-Jun-16 07:32N 36°32' E 015°11'1111.4
2016-Jun-16 06:33N 36°35' E 014°58'1211.9
2016-Jun-16 05:33N 36°34' E 014°43'1211.9
2016-Jun-16 04:33N 36°39' E 014°29'1212.4
2016-Jun-16 03:34N 36°44' E 014°15'1312.9
2016-Jun-16 02:33N 36°49' E 014°01'1312.7
2016-Jun-16 01:34N 36°54' E 013°46'1212.0
2016-Jun-16 00:34N 36°59' E 013°32'1211.6
2016-Jun-15 23:34N 37°03' E 013°19'1211.8
2016-Jun-15 22:33N 37°08' E 013°05'1211.7
2016-Jun-15 21:33N 37°12' E 012°51'1212.0
2016-Jun-15 20:33N 37°15' E 012°37'1211.9
2016-Jun-15 19:33N 37°18' E 012°22'1212.1
2016-Jun-15 18:33N 37°19' E 012°07'1212.1
2016-Jun-15 17:33N 37°18' E 011°52'1212.0
2016-Jun-15 16:34N 37°18' E 011°37'1211.9
2016-Jun-15 15:33N 37°19' E 011°22'1411.6
2016-Jun-15 14:18N 37°25' E 011°05'912.0
2016-Jun-15 13:33N 37°26' E 010°54'1212.1
2016-Jun-15 12:34N 37°29' E 010°39'  

Dump ship's entire track history